Time;durP1;ratioP1;P1;durP2;ratioP2;P2;SDS_P1;SDS_P2;PMS_P1;PMS_P2;Temp;Humidity;BMP_temperature;BMP_pressure;BME280_temperature;BME280_humidity;BME280_pressure;Samples;Min_cycle;Max_cycle;Signal;HPM_P1;HPM_P2
2023/06/26 00:01:11;;;;;;;13.85;12.43;;;19.00;99.90;;;;;;5002942;28;20508;-74
2023/06/26 00:03:40;;;;;;;15.98;14.23;;;18.90;99.90;;;;;;4999167;28;20038;-75
2023/06/26 00:06:07;;;;;;;17.92;13.77;;;18.80;99.90;;;;;;5001535;28;20116;-75
2023/06/26 00:08:35;;;;;;;16.63;13.73;;;18.90;99.90;;;;;;5002421;28;20124;-75
2023/06/26 00:11:02;;;;;;;16.25;14.25;;;18.80;99.90;;;;;;4998753;28;20089;-75
2023/06/26 00:13:30;;;;;;;19.42;14.05;;;18.80;99.90;;;;;;5000622;28;20501;-75
2023/06/26 00:15:57;;;;;;;17.05;13.60;;;18.80;99.90;;;;;;5001185;28;20045;-75
2023/06/26 00:18:24;;;;;;;17.70;14.00;;;18.80;99.90;;;;;;5000683;28;20042;-75
2023/06/26 00:20:55;;;;;;;16.13;13.25;;;18.70;99.90;;;;;;5001521;28;20133;-75
2023/06/26 00:23:22;;;;;;;14.95;12.68;;;18.70;99.90;;;;;;5002535;28;20107;-75
2023/06/26 00:25:49;;;;;;;14.60;13.10;;;18.70;99.90;;;;;;5000097;28;20572;-76
2023/06/26 00:28:17;;;;;;;16.83;13.32;;;18.70;99.90;;;;;;5002383;28;20049;-75
2023/06/26 00:30:44;;;;;;;15.25;12.48;;;18.70;99.90;;;;;;5000484;28;20066;-76
2023/06/26 00:33:11;;;;;;;16.38;13.48;;;18.70;99.90;;;;;;4998896;28;20050;-75
2023/06/26 00:35:39;;;;;;;15.48;13.85;;;18.70;99.90;;;;;;5001000;28;20043;-76
2023/06/26 00:38:07;;;;;;;16.10;13.38;;;18.70;99.90;;;;;;4982751;28;20130;-74
2023/06/26 00:40:35;;;;;;;18.23;13.40;;;18.70;99.90;;;;;;5000186;28;20081;-75
2023/06/26 00:43:04;;;;;;;15.90;12.88;;;18.70;99.90;;;;;;4999939;28;20042;-75
2023/06/26 00:45:31;;;;;;;17.13;13.38;;;18.70;99.90;;;;;;4998516;28;20104;-75
2023/06/26 00:47:58;;;;;;;15.70;13.93;;;18.80;99.90;;;;;;5000783;28;20065;-75
2023/06/26 00:50:26;;;;;;;15.13;13.52;;;18.90;99.90;;;;;;5000718;28;20042;-74
2023/06/26 00:53:00;;;;;;;17.08;13.35;;;18.80;99.90;;;;;;4986537;28;20054;-76
2023/06/26 00:55:30;;;;;;;17.15;13.32;;;18.80;99.90;;;;;;5000680;28;20407;-75
2023/06/26 00:57:58;;;;;;;15.25;13.10;;;18.70;99.90;;;;;;5000311;28;20100;-76
2023/06/26 01:00:29;;;;;;;18.10;13.77;;;18.70;99.90;;;;;;4999328;28;20127;-77
2023/06/26 01:02:59;;;;;;;18.48;13.82;;;18.70;99.90;;;;;;4999176;28;20035;-73
2023/06/26 01:05:28;;;;;;;15.23;12.43;;;18.70;99.90;;;;;;4982577;28;20514;-75
2023/06/26 01:07:56;;;;;;;14.98;13.27;;;18.70;99.90;;;;;;4999470;28;20046;-74
2023/06/26 01:10:27;;;;;;;17.02;14.10;;;18.70;99.90;;;;;;4998808;28;20050;-75
2023/06/26 01:12:57;;;;;;;15.32;13.57;;;18.70;99.90;;;;;;4999393;28;20482;-75
2023/06/26 01:15:25;;;;;;;17.58;14.45;;;18.80;99.90;;;;;;4995606;28;20049;-75
2023/06/26 01:17:53;;;;;;;25.20;21.13;;;18.70;99.90;;;;;;4981930;28;20050;-75
2023/06/26 01:20:21;;;;;;;17.55;15.70;;;18.80;99.90;;;;;;4997645;28;20047;-76
2023/06/26 01:22:59;;;;;;;16.88;13.85;;;18.70;99.90;;;;;;4982174;28;20049;-76
2023/06/26 01:25:38;;;;;;;16.77;14.50;;;18.60;99.90;;;;;;4996195;28;20058;-76
2023/06/26 01:28:09;;;;;;;18.67;15.23;;;18.60;99.90;;;;;;4999930;28;20050;-75
2023/06/26 01:30:40;;;;;;;17.50;14.73;;;18.50;99.90;;;;;;4997139;28;20112;-75
2023/06/26 01:33:08;;;;;;;19.17;15.00;;;18.50;99.90;;;;;;4996841;28;20062;-75
2023/06/26 01:35:36;;;;;;;18.45;14.45;;;18.40;99.90;;;;;;4996934;28;20147;-75
2023/06/26 01:38:14;;;;;;;16.50;14.60;;;18.40;99.90;;;;;;4999145;28;20223;-75
2023/06/26 01:40:41;;;;;;;17.85;13.95;;;18.40;99.90;;;;;;4998098;28;20594;-75
2023/06/26 01:43:16;;;;;;;18.00;14.98;;;18.40;99.90;;;;;;4998771;28;20128;-74
2023/06/26 01:45:45;;;;;;;18.57;15.27;;;18.40;99.90;;;;;;4982023;28;20046;-76
2023/06/26 01:48:17;;;;;;;17.23;14.40;;;18.30;99.90;;;;;;4998195;28;20061;-75
2023/06/26 01:50:45;;;;;;;16.13;14.40;;;18.20;99.90;;;;;;4982920;28;20050;-75
2023/06/26 01:53:17;;;;;;;19.00;14.77;;;18.20;99.90;;;;;;4999047;28;20085;-74
2023/06/26 01:55:48;;;;;;;17.83;15.00;;;18.20;99.90;;;;;;4998669;28;20042;-76
2023/06/26 01:58:20;;;;;;;18.33;15.55;;;18.20;99.90;;;;;;4999245;28;20050;-75
2023/06/26 02:00:48;;;;;;;18.27;14.50;;;18.20;99.90;;;;;;5000641;28;20046;-77
2023/06/26 02:03:15;;;;;;;17.80;15.20;;;18.20;99.90;;;;;;4998708;28;20056;-77
2023/06/26 02:05:44;;;;;;;17.83;15.88;;;18.10;99.90;;;;;;4998639;28;20042;-74
2023/06/26 02:08:14;;;;;;;18.98;17.00;;;18.00;99.90;;;;;;4998928;28;20089;-74
2023/06/26 02:10:49;;;;;;;22.13;15.50;;;17.90;99.90;;;;;;4998625;28;20047;-76
2023/06/26 02:13:19;;;;;;;19.80;15.75;;;17.90;99.90;;;;;;4997423;28;20051;-75
2023/06/26 02:15:46;;;;;;;20.73;16.15;;;17.80;99.90;;;;;;4997986;28;20046;-75
2023/06/26 02:18:14;;;;;;;20.65;17.08;;;17.70;99.90;;;;;;4980928;28;20126;-75
2023/06/26 02:20:43;;;;;;;23.25;16.38;;;17.70;99.90;;;;;;4999955;28;20040;-75
2023/06/26 02:23:11;;;;;;;20.65;16.23;;;17.60;99.90;;;;;;4979357;28;20120;-75
2023/06/26 02:25:38;;;;;;;18.65;15.75;;;17.60;99.90;;;;;;4981611;28;20046;-75
2023/06/26 02:28:06;;;;;;;17.20;15.45;;;17.60;99.90;;;;;;4999772;28;20089;-75
2023/06/26 02:30:34;;;;;;;24.60;15.98;;;17.50;99.90;;;;;;4981243;28;20049;-76
2023/06/26 02:33:02;;;;;;;19.98;16.08;;;17.50;99.90;;;;;;4997900;28;20066;-76
2023/06/26 02:35:29;;;;;;;18.85;16.38;;;17.40;99.90;;;;;;4997409;28;20041;-76
2023/06/26 02:37:56;;;;;;;22.23;16.65;;;17.40;99.90;;;;;;4998859;28;20045;-76
2023/06/26 02:40:24;;;;;;;20.67;17.55;;;17.30;99.90;;;;;;4998604;28;20048;-76
2023/06/26 02:42:53;;;;;;;25.92;18.17;;;17.40;99.90;;;;;;4980648;28;20073;-76
2023/06/26 02:45:21;;;;;;;21.50;17.92;;;17.30;99.90;;;;;;4996174;28;20120;-76
2023/06/26 02:47:51;;;;;;;28.27;17.35;;;17.30;99.90;;;;;;4997275;28;20053;-76
2023/06/26 02:50:18;;;;;;;24.27;19.60;;;17.20;99.90;;;;;;4981725;28;20038;-76
2023/06/26 02:53:02;;;;;;;23.73;19.58;;;17.20;99.90;;;;;;4997810;28;20393;-76
2023/06/26 02:55:29;;;;;;;25.65;18.92;;;17.20;99.90;;;;;;4997928;28;20031;-75
2023/06/26 02:57:57;;;;;;;24.38;19.02;;;17.20;99.90;;;;;;4980667;28;20458;-76
2023/06/26 03:00:25;;;;;;;24.65;17.73;;;17.10;99.90;;;;;;4979645;28;20060;-76
2023/06/26 03:02:56;;;;;;;20.90;18.10;;;17.10;99.90;;;;;;4995724;28;20042;-76
2023/06/26 03:05:24;;;;;;;23.35;17.63;;;17.10;99.90;;;;;;4980293;28;20488;-75
2023/06/26 03:07:52;;;;;;;26.50;19.35;;;17.00;99.90;;;;;;4981278;28;20089;-75
2023/06/26 03:10:19;;;;;;;24.83;19.95;;;17.00;99.90;;;;;;4998847;28;20045;-76
2023/06/26 03:12:47;;;;;;;28.83;20.80;;;17.00;99.90;;;;;;4980536;28;20049;-75
2023/06/26 03:15:14;;;;;;;31.40;20.48;;;17.00;99.90;;;;;;4979667;28;20049;-73
2023/06/26 03:17:42;;;;;;;25.88;19.75;;;17.00;99.90;;;;;;4987022;28;20042;-75
2023/06/26 03:20:15;;;;;;;22.65;20.25;;;17.10;99.90;;;;;;4996648;28;20042;-75
2023/06/26 03:22:59;;;;;;;25.70;21.13;;;17.10;99.90;;;;;;4998475;28;20054;-75
2023/06/26 03:25:27;;;;;;;26.88;20.25;;;17.10;99.90;;;;;;4980656;28;20052;-77
2023/06/26 03:28:23;;;;;;;24.45;19.65;;;17.20;99.90;;;;;;4991333;28;20140;-76
2023/06/26 03:30:51;;;;;;;23.00;19.23;;;17.20;99.90;;;;;;4983201;28;20041;-74
2023/06/26 03:33:19;;;;;;;29.42;21.25;;;17.20;99.90;;;;;;4983106;28;20061;-77
2023/06/26 03:35:47;;;;;;;24.85;20.02;;;17.20;99.90;;;;;;4986845;28;20078;-76
2023/06/26 03:38:15;;;;;;;23.02;18.42;;;17.30;99.90;;;;;;5004673;28;20048;-76
2023/06/26 03:40:45;;;;;;;25.73;19.13;;;17.40;99.90;;;;;;4984535;28;20049;-78
2023/06/26 03:43:12;;;;;;;26.15;18.52;;;17.50;99.90;;;;;;4999950;28;20042;-75
2023/06/26 03:45:54;;;;;;;26.08;19.40;;;17.50;99.90;;;;;;4999353;28;20213;-75
2023/06/26 03:48:22;;;;;;;24.48;18.92;;;17.60;99.90;;;;;;5000773;28;20049;-75
2023/06/26 03:50:51;;;;;;;26.38;19.17;;;17.60;99.90;;;;;;4983317;28;20054;-76
2023/06/26 03:54:01;;;;;;;25.35;18.73;;;17.60;99.90;;;;;;4998467;28;20042;-76
2023/06/26 03:56:29;;;;;;;26.15;18.35;;;17.70;99.90;;;;;;4966130;28;20506;-75
2023/06/26 03:58:57;;;;;;;25.33;18.63;;;17.70;99.90;;;;;;4968435;28;20683;-76
2023/06/26 04:01:24;;;;;;;28.90;19.98;;;17.80;99.90;;;;;;4969349;28;20113;-76
2023/06/26 04:03:51;;;;;;;35.58;23.15;;;17.90;99.90;;;;;;4952356;28;20053;-75
2023/06/26 04:06:21;;;;;;;35.15;22.38;;;18.00;99.90;;;;;;4969295;28;20057;-75
2023/06/26 04:08:48;;;;;;;36.55;23.40;;;18.00;99.90;;;;;;4953079;28;20039;-76
2023/06/26 04:11:17;;;;;;;44.85;26.15;;;18.00;99.90;;;;;;4951384;28;20089;-76
2023/06/26 04:13:44;;;;;;;43.90;26.02;;;18.00;99.90;;;;;;4967175;28;20082;-75
2023/06/26 04:16:12;;;;;;;40.08;24.55;;;18.10;99.90;;;;;;4969216;28;20062;-76
2023/06/26 04:18:40;;;;;;;37.03;24.25;;;18.30;99.90;;;;;;4968668;28;20055;-75
2023/06/26 04:21:11;;;;;;;39.90;25.05;;;18.70;99.90;;;;;;4968459;28;20031;-76
2023/06/26 04:23:41;;;;;;;42.05;25.00;;;18.90;99.90;;;;;;4968006;28;20051;-76
2023/06/26 04:26:09;;;;;;;39.78;23.50;;;19.20;99.90;;;;;;4969076;28;20471;-75
2023/06/26 04:28:37;;;;;;;42.97;24.08;;;19.50;99.90;;;;;;4969303;28;20129;-75
2023/06/26 04:31:05;;;;;;;36.10;22.85;;;19.80;99.90;;;;;;4968371;28;20509;-75
2023/06/26 04:33:33;;;;;;;36.60;23.83;;;20.10;99.90;;;;;;4986776;28;20053;-75
2023/06/26 04:36:03;;;;;;;37.72;24.02;;;20.40;99.90;;;;;;4999197;28;20046;-75
2023/06/26 04:38:31;;;;;;;36.35;22.95;;;20.70;99.90;;;;;;4999438;28;20065;-75
2023/06/26 04:41:00;;;;;;;32.42;22.80;;;21.00;99.90;;;;;;4998767;28;20498;-75
2023/06/26 04:43:28;;;;;;;35.40;21.30;;;21.20;99.90;;;;;;5000145;28;20045;-75
2023/06/26 04:45:55;;;;;;;30.77;21.77;;;21.30;99.90;;;;;;4997140;28;20397;-76
2023/06/26 04:48:23;;;;;;;30.20;21.00;;;21.50;99.90;;;;;;4999451;28;20052;-75
2023/06/26 04:50:53;;;;;;;32.03;19.27;;;21.60;99.90;;;;;;4997958;28;20502;-74
2023/06/26 04:53:22;;;;;;;26.52;19.33;;;21.40;99.90;;;;;;4999919;28;20045;-75
2023/06/26 04:55:51;;;;;;;28.02;19.58;;;21.00;99.90;;;;;;4998189;28;20034;-75
2023/06/26 04:58:20;;;;;;;30.45;19.67;;;21.00;99.90;;;;;;5000097;28;20062;-75
2023/06/26 05:00:48;;;;;;;29.02;20.70;;;20.80;99.90;;;;;;5000309;28;20050;-75
2023/06/26 05:03:19;;;;;;;28.13;20.02;;;20.70;99.90;;;;;;4998333;28;20049;-75
2023/06/26 05:05:50;;;;;;;29.65;19.38;;;20.70;99.90;;;;;;4999754;28;20030;-77
2023/06/26 05:08:19;;;;;;;30.38;21.08;;;20.70;99.90;;;;;;4998126;28;20521;-74
2023/06/26 05:10:46;;;;;;;28.80;21.67;;;20.70;99.90;;;;;;5000230;28;20038;-76
2023/06/26 05:13:17;;;;;;;27.63;20.92;;;20.80;99.90;;;;;;4999504;28;20038;-75
2023/06/26 05:15:46;;;;;;;27.05;18.70;;;20.90;99.90;;;;;;4999537;28;20126;-75
2023/06/26 05:18:14;;;;;;;26.70;19.67;;;21.00;99.90;;;;;;4999878;28;20053;-75
2023/06/26 05:20:42;;;;;;;25.95;20.20;;;21.30;99.90;;;;;;5000317;28;20355;-76
2023/06/26 05:23:12;;;;;;;25.30;18.55;;;21.60;99.90;;;;;;5000179;28;20157;-76
2023/06/26 05:25:41;;;;;;;23.85;18.75;;;21.90;99.90;;;;;;4998568;28;20125;-75
2023/06/26 05:28:10;;;;;;;20.38;17.25;;;22.70;99.90;;;;;;4999561;28;20101;-76
2023/06/26 05:30:38;;;;;;;21.13;17.33;;;23.40;99.90;;;;;;4998750;28;20494;-76
2023/06/26 05:33:07;;;;;;;19.15;16.85;;;23.70;99.90;;;;;;4981636;28;20053;-78
2023/06/26 05:35:40;;;;;;;21.10;17.58;;;23.80;99.90;;;;;;4998462;28;20038;-79
2023/06/26 05:38:09;;;;;;;21.23;18.65;;;23.40;99.90;;;;;;4998924;28;20545;-75
2023/06/26 05:40:36;;;;;;;25.77;20.05;;;23.00;99.90;;;;;;4981816;28;20466;-76
2023/06/26 05:43:04;;;;;;;22.27;18.90;;;22.70;99.90;;;;;;4996707;28;20050;-76
2023/06/26 05:45:32;;;;;;;22.67;18.88;;;22.40;99.90;;;;;;4999612;28;20512;-78
2023/06/26 05:47:59;;;;;;;27.35;21.23;;;22.40;99.90;;;;;;4998519;28;20073;-76
2023/06/26 05:50:30;;;;;;;24.33;19.10;;;22.70;99.90;;;;;;4999347;28;20042;-76
2023/06/26 05:52:58;;;;;;;30.45;24.38;;;24.20;99.90;;;;;;4998611;28;20140;-76
2023/06/26 05:55:26;;;;;;;22.90;20.27;;;25.70;99.90;;;;;;4997806;28;20035;-77
2023/06/26 05:57:54;;;;;;;23.90;20.67;;;26.60;99.90;;;;;;4998635;28;20034;-75
2023/06/26 06:00:23;;;;;;;18.83;16.83;;;27.40;99.90;;;;;;4998398;28;20042;-75
2023/06/26 06:02:54;;;;;;;21.02;17.70;;;27.80;99.90;;;;;;4979979;28;20477;-77
2023/06/26 06:05:21;;;;;;;24.27;18.95;;;27.50;99.90;;;;;;4997117;28;20047;-76
2023/06/26 06:07:50;;;;;;;23.63;18.98;;;26.70;99.90;;;;;;4999063;28;20557;-76
2023/06/26 06:10:18;;;;;;;23.48;19.15;;;26.30;99.90;;;;;;4981843;28;20062;-76
2023/06/26 06:12:45;;;;;;;23.55;19.08;;;25.90;99.90;;;;;;4998876;28;20049;-75
2023/06/26 06:15:13;;;;;;;24.38;18.70;;;25.60;99.90;;;;;;4998990;28;20057;-76
2023/06/26 06:17:40;;;;;;;20.27;17.90;;;25.60;99.90;;;;;;4999587;28;20109;-76
2023/06/26 06:20:08;;;;;;;20.73;17.48;;;26.30;99.90;;;;;;4998541;28;20068;-75
2023/06/26 06:22:36;;;;;;;26.60;17.27;;;27.10;99.90;;;;;;4997688;28;20054;-76
2023/06/26 06:25:05;;;;;;;19.33;16.45;;;28.10;99.90;;;;;;4980011;28;20057;-75
2023/06/26 06:27:33;;;;;;;21.48;17.38;;;27.70;99.90;;;;;;4998950;28;20073;-76
2023/06/26 06:30:00;;;;;;;21.20;16.63;;;28.40;99.90;;;;;;4979713;28;20396;-76
2023/06/26 06:32:28;;;;;;;22.77;18.20;;;28.70;99.90;;;;;;4996078;28;20042;-75
2023/06/26 06:34:55;;;;;;;21.50;16.63;;;28.30;99.90;;;;;;4996467;28;20046;-75
2023/06/26 06:37:23;;;;;;;23.27;17.23;;;27.80;99.90;;;;;;4998423;28;20070;-76
2023/06/26 06:39:50;;;;;;;22.63;17.27;;;27.40;99.90;;;;;;4980767;28;20046;-75
2023/06/26 06:42:19;;;;;;;30.90;27.63;;;27.90;99.90;;;;;;4997443;28;20101;-75
2023/06/26 06:44:46;;;;;;;22.40;17.23;;;28.50;99.90;;;;;;4997316;28;20053;-75
2023/06/26 06:47:14;;;;;;;24.88;15.48;;;29.10;99.90;;;;;;4997610;28;20050;-76
2023/06/26 06:49:42;;;;;;;22.05;16.45;;;29.30;99.90;;;;;;4997999;28;20502;-76
2023/06/26 06:52:09;;;;;;;20.80;15.77;;;28.20;99.90;;;;;;4997487;28;20049;-76
2023/06/26 06:54:52;;;;;;;23.02;15.60;;;28.00;99.90;;;;;;4997871;28;20114;-74
2023/06/26 06:57:22;;;;;;;21.10;13.88;;;27.80;99.90;;;;;;4996557;28;20046;-76
2023/06/26 06:59:49;;;;;;;19.75;15.20;;;28.10;99.90;;;;;;4997011;28;20485;-76
2023/06/26 07:02:18;;;;;;;19.15;15.60;;;28.30;99.90;;;;;;4996987;28;20081;-76
2023/06/26 07:04:46;;;;;;;19.42;15.07;;;27.90;99.90;;;;;;4997676;28;20049;-75
2023/06/26 07:07:14;;;;;;;26.45;18.33;;;28.00;99.90;;;;;;4999212;28;20557;-76
2023/06/26 07:09:41;;;;;;;22.45;18.65;;;28.10;99.90;;;;;;4997246;28;20038;-76
2023/06/26 07:12:09;;;;;;;19.77;16.08;;;28.10;99.90;;;;;;4996438;28;20038;-76
2023/06/26 07:14:38;;;;;;;19.15;15.95;;;27.90;99.90;;;;;;4997214;28;20507;-76
2023/06/26 07:17:06;;;;;;;17.63;15.30;;;27.40;99.90;;;;;;4998111;28;20046;-75
2023/06/26 07:19:34;;;;;;;22.50;15.60;;;27.40;99.90;;;;;;4997803;28;20042;-75
2023/06/26 07:22:01;;;;;;;18.92;16.05;;;27.10;99.90;;;;;;4998211;28;20038;-76
2023/06/26 07:24:29;;;;;;;21.70;15.23;;;27.20;99.90;;;;;;4996207;28;20081;-76
2023/06/26 07:27:00;;;;;;;22.60;16.65;;;27.30;99.90;;;;;;4997432;28;20050;-75
2023/06/26 07:29:28;;;;;;;18.88;14.65;;;27.40;99.90;;;;;;4997799;28;20069;-76
2023/06/26 07:31:59;;;;;;;18.60;15.30;;;27.80;99.90;;;;;;4996056;28;20450;-76
2023/06/26 07:34:27;;;;;;;20.60;15.52;;;28.20;99.90;;;;;;4998661;28;20374;-77
2023/06/26 07:36:54;;;;;;;19.58;14.82;;;27.80;99.90;;;;;;4997313;28;20057;-77
2023/06/26 07:39:22;;;;;;;21.38;14.75;;;27.70;99.90;;;;;;4997032;28;20138;-76
2023/06/26 07:41:49;;;;;;;28.75;15.93;;;27.40;99.90;;;;;;5001625;28;20070;-77
2023/06/26 07:44:17;;;;;;;19.58;14.73;;;27.60;99.90;;;;;;4998742;28;20133;-76
2023/06/26 07:46:44;;;;;;;17.42;13.98;;;27.80;99.90;;;;;;4999778;28;20066;-76
2023/06/26 07:49:13;;;;;;;17.95;13.73;;;27.60;99.90;;;;;;4999242;28;20067;-77
2023/06/26 07:51:41;;;;;;;19.05;13.82;;;27.60;99.90;;;;;;4998161;28;20049;-76
2023/06/26 07:54:08;;;;;;;18.77;14.43;;;27.90;99.90;;;;;;4997479;28;20054;-76
2023/06/26 07:56:53;;;;;;;21.23;15.68;;;28.00;99.90;;;;;;4998193;28;20401;-75
2023/06/26 07:59:21;;;;;;;23.35;17.27;;;27.50;99.90;;;;;;4998534;28;20406;-77
2023/06/26 08:01:49;;;;;;;19.35;14.60;;;27.70;99.90;;;;;;4996971;28;20038;-74
2023/06/26 08:04:19;;;;;;;19.85;14.25;;;27.70;99.90;;;;;;4996565;28;20038;-75
2023/06/26 08:06:46;;;;;;;17.30;15.18;;;27.90;99.90;;;;;;4997340;28;20042;-75
2023/06/26 08:09:13;;;;;;;17.60;15.10;;;28.00;99.90;;;;;;4997492;28;20141;-76
2023/06/26 08:11:41;;;;;;;16.92;14.55;;;28.10;99.90;;;;;;4998875;28;20057;-76
2023/06/26 08:14:08;;;;;;;19.63;14.77;;;28.30;99.90;;;;;;4999843;28;20045;-75
2023/06/26 08:16:36;;;;;;;18.98;15.18;;;28.60;99.90;;;;;;5001495;28;20516;-76
2023/06/26 08:19:03;;;;;;;16.83;14.75;;;28.70;99.90;;;;;;5001511;28;20057;-76
2023/06/26 08:21:32;;;;;;;21.80;17.10;;;28.70;99.90;;;;;;4999604;28;20234;-76
2023/06/26 08:24:00;;;;;;;23.35;19.52;;;28.70;99.90;;;;;;4999944;28;20053;-75
2023/06/26 08:26:27;;;;;;;19.02;16.58;;;28.50;99.90;;;;;;4999617;28;20056;-75
2023/06/26 08:28:55;;;;;;;21.33;17.80;;;28.40;99.90;;;;;;5000129;28;20141;-76
2023/06/26 08:31:23;;;;;;;23.23;18.60;;;28.30;99.90;;;;;;5001231;28;20034;-75
2023/06/26 08:33:50;;;;;;;21.70;17.13;;;28.50;99.90;;;;;;4999641;28;20053;-76
2023/06/26 08:36:18;;;;;;;20.98;16.77;;;28.90;99.90;;;;;;4982510;28;20042;-75
2023/06/26 08:38:47;;;;;;;24.05;18.05;;;28.80;99.90;;;;;;5000108;28;20051;-76
2023/06/26 08:41:14;;;;;;;22.23;17.83;;;28.20;99.90;;;;;;5000844;28;20038;-76
2023/06/26 08:43:42;;;;;;;25.98;21.48;;;28.20;99.90;;;;;;4999948;28;20486;-76
2023/06/26 08:46:09;;;;;;;22.13;19.60;;;28.10;99.90;;;;;;5002538;28;20046;-74
2023/06/26 08:48:38;;;;;;;20.33;18.20;;;28.40;99.90;;;;;;4999705;28;20053;-77
2023/06/26 08:51:10;;;;;;;23.02;17.70;;;28.60;99.90;;;;;;5000391;28;20030;-74
2023/06/26 08:53:44;;;;;;;19.90;17.77;;;28.60;99.90;;;;;;5000074;28;20398;-76
2023/06/26 08:56:16;;;;;;;23.35;18.30;;;28.30;99.90;;;;;;5000747;28;20129;-76
2023/06/26 08:58:44;;;;;;;20.42;17.30;;;28.20;99.90;;;;;;4999525;28;20125;-77
2023/06/26 09:01:13;;;;;;;19.88;17.88;;;28.50;99.90;;;;;;5001116;28;20050;-75
2023/06/26 09:03:42;;;;;;;16.95;14.45;;;28.90;99.90;;;;;;4999192;28;20073;-75
2023/06/26 09:06:09;;;;;;;16.17;14.43;;;29.30;99.90;;;;;;4998614;28;20093;-76
2023/06/26 09:08:37;;;;;;;16.63;14.38;;;29.20;99.90;;;;;;4999606;28;20052;-75
2023/06/26 09:11:05;;;;;;;16.73;14.98;;;29.50;99.90;;;;;;4998711;28;20119;-76
2023/06/26 09:13:34;;;;;;;16.20;14.50;;;29.40;99.90;;;;;;4999619;28;20038;-77
2023/06/26 09:16:07;;;;;;;17.33;15.52;;;29.50;99.90;;;;;;4999384;28;20035;-76
2023/06/26 09:18:35;;;;;;;18.58;16.67;;;29.30;99.90;;;;;;4998946;28;20042;-76
2023/06/26 09:21:08;;;;;;;21.42;19.05;;;29.60;99.90;;;;;;4999307;28;20046;-76
2023/06/26 09:23:36;;;;;;;22.35;19.95;;;29.50;99.90;;;;;;4996922;28;20141;-76
2023/06/26 09:26:05;;;;;;;20.20;18.20;;;29.20;99.90;;;;;;4998364;28;20054;-76
2023/06/26 09:28:34;;;;;;;24.35;21.73;;;28.80;99.90;;;;;;4999089;28;20165;-75
2023/06/26 09:31:04;;;;;;;24.17;21.52;;;28.50;99.90;;;;;;4998171;28;20498;-76
2023/06/26 09:33:36;;;;;;;22.90;20.65;;;28.60;99.90;;;;;;4982040;28;20073;-75
2023/06/26 09:36:07;;;;;;;28.92;23.00;;;29.00;99.90;;;;;;5003670;28;20065;-76
2023/06/26 09:38:36;;;;;;;23.48;21.10;;;29.10;99.90;;;;;;5000373;28;20042;-76
2023/06/26 09:41:04;;;;;;;30.02;26.90;;;29.00;99.90;;;;;;5000232;28;20046;-75
2023/06/26 09:43:33;;;;;;;21.92;19.05;;;29.00;99.90;;;;;;4999898;28;20033;-75
2023/06/26 09:46:01;;;;;;;22.52;18.95;;;28.70;99.90;;;;;;4997842;28;20486;-76
2023/06/26 09:48:29;;;;;;;21.55;17.65;;;28.80;99.90;;;;;;4998358;28;20038;-77
2023/06/26 09:50:57;;;;;;;22.92;20.52;;;28.80;99.90;;;;;;4999948;28;20046;-75
2023/06/26 09:53:26;;;;;;;20.50;17.83;;;28.80;99.90;;;;;;4998550;28;20046;-76
2023/06/26 09:55:54;;;;;;;18.90;16.70;;;29.00;99.90;;;;;;4997848;28;20049;-76
2023/06/26 09:58:22;;;;;;;17.10;15.38;;;29.10;99.90;;;;;;4998067;28;20042;-75
2023/06/26 10:00:51;;;;;;;16.00;14.38;;;29.30;99.90;;;;;;4998756;28;20045;-75
2023/06/26 10:03:19;;;;;;;15.25;12.90;;;29.70;99.90;;;;;;4997486;28;20133;-75
2023/06/26 10:05:47;;;;;;;25.90;20.73;;;29.80;99.90;;;;;;4999488;28;20060;-76
2023/06/26 10:08:15;;;;;;;13.35;11.93;;;29.30;99.90;;;;;;4998685;28;20046;-76
2023/06/26 10:10:44;;;;;;;13.93;12.50;;;29.00;99.90;;;;;;4999284;28;20145;-77
2023/06/26 10:13:20;;;;;;;12.65;11.30;;;28.70;99.90;;;;;;4997948;28;20043;-77
2023/06/26 10:15:49;;;;;;;12.63;11.18;;;28.20;99.90;;;;;;5003150;28;20042;-75
2023/06/26 10:18:19;;;;;;;13.65;12.23;;;27.70;99.90;;;;;;5001506;28;20134;-76
2023/06/26 10:20:49;;;;;;;12.80;10.32;;;27.50;99.90;;;;;;4999792;28;20137;-76
2023/06/26 10:23:17;;;;;;;13.63;10.63;;;27.20;99.90;;;;;;4999235;28;20056;-75
2023/06/26 10:25:48;;;;;;;11.18;9.48;;;27.20;99.90;;;;;;5000568;28;20042;-76
2023/06/26 10:28:17;;;;;;;12.30;9.40;;;27.30;99.90;;;;;;5001201;28;20054;-75
2023/06/26 10:30:48;;;;;;;14.30;9.88;;;27.50;99.90;;;;;;4999009;28;20049;-76
2023/06/26 10:33:17;;;;;;;13.52;10.13;;;28.00;99.90;;;;;;4997678;28;20087;-76
2023/06/26 10:35:45;;;;;;;12.45;10.75;;;28.40;99.90;;;;;;4996907;28;20042;-75
2023/06/26 10:38:13;;;;;;;16.38;11.82;;;28.50;99.90;;;;;;4996992;28;20513;-75
2023/06/26 10:40:44;;;;;;;14.18;10.75;;;28.60;99.90;;;;;;4994445;28;20108;-77
2023/06/26 10:43:13;;;;;;;15.05;10.57;;;28.60;99.90;;;;;;4996509;28;20117;-75
2023/06/26 10:45:52;;;;;;;15.98;10.80;;;28.60;99.90;;;;;;4998055;28;20054;-75
2023/06/26 10:48:22;;;;;;;12.40;11.10;;;28.80;99.90;;;;;;4980363;28;20042;-75
2023/06/26 10:50:53;;;;;;;14.23;11.35;;;28.60;99.90;;;;;;4997141;28;20077;-77
2023/06/26 10:53:27;;;;;;;12.02;10.75;;;28.60;99.90;;;;;;4996051;28;20482;-75
2023/06/26 10:55:58;;;;;;;13.05;10.95;;;28.50;99.90;;;;;;4981492;28;20465;-75
2023/06/26 10:58:31;;;;;;;12.88;9.82;;;28.50;99.90;;;;;;4998481;28;20460;-74
2023/06/26 11:01:22;;;;;;;11.63;9.95;;;28.70;99.90;;;;;;4995399;28;20065;-76
2023/06/26 11:04:05;;;;;;;10.30;9.20;;;28.70;99.90;;;;;;4996282;28;20046;-75
2023/06/26 11:06:34;;;;;;;9.25;8.15;;;29.20;99.90;;;;;;4998816;28;20058;-75
2023/06/26 11:09:07;;;;;;;12.05;8.05;;;29.40;99.90;;;;;;4979496;28;20076;-75
2023/06/26 11:11:58;;;;;;;9.65;8.70;;;29.40;99.90;;;;;;4996223;28;20035;-75
2023/06/26 11:14:27;;;;;;;10.73;8.15;;;28.80;99.90;;;;;;4997169;28;20057;-75
2023/06/26 11:16:57;;;;;;;9.65;7.55;;;29.10;99.90;;;;;;4998400;28;20040;-75
2023/06/26 11:19:28;;;;;;;11.88;7.43;;;29.20;99.90;;;;;;4999727;28;20073;-75
2023/06/26 11:22:15;;;;;;;9.48;7.43;;;29.50;99.90;;;;;;4997589;28;20628;-76
2023/06/26 11:24:44;;;;;;;7.28;5.85;;;30.00;99.90;;;;;;4998171;28;20038;-75
2023/06/26 11:27:11;;;;;;;7.22;6.35;;;30.00;99.90;;;;;;4997289;28;20069;-75
2023/06/26 11:29:38;;;;;;;7.00;5.65;;;30.10;99.90;;;;;;4994801;28;20568;-74
2023/06/26 11:32:07;;;;;;;8.60;6.10;;;30.00;99.90;;;;;;4998588;28;20497;-75
2023/06/26 11:34:39;;;;;;;6.93;5.90;;;29.70;99.90;;;;;;4998829;28;20128;-75
2023/06/26 11:37:07;;;;;;;8.65;5.88;;;29.50;99.90;;;;;;4997416;28;20073;-75
2023/06/26 11:39:35;;;;;;;6.78;5.82;;;28.80;99.90;;;;;;4997663;28;20149;-75
2023/06/26 11:42:02;;;;;;;7.57;6.80;;;28.50;99.90;;;;;;4979852;28;20046;-76
2023/06/26 11:44:49;;;;;;;7.85;6.07;;;28.80;99.90;;;;;;4980087;28;20447;-75
2023/06/26 11:47:22;;;;;;;10.00;6.22;;;28.90;99.90;;;;;;4983584;28;20041;-77
2023/06/26 11:49:51;;;;;;;6.53;5.53;;;28.70;99.90;;;;;;5003158;28;20120;-75
2023/06/26 11:52:18;;;;;;;7.75;5.60;;;28.80;99.90;;;;;;5003002;28;20042;-74
2023/06/26 11:54:46;;;;;;;8.80;5.63;;;29.00;99.90;;;;;;5001293;28;20042;-74
2023/06/26 11:57:19;;;;;;;6.45;5.50;;;28.60;99.90;;;;;;5001187;28;20038;-74
2023/06/26 11:59:46;;;;;;;7.57;4.85;;;28.50;99.90;;;;;;4998308;28;20133;-75
2023/06/26 12:02:16;;;;;;;6.47;4.70;;;28.10;99.90;;;;;;4998012;28;20063;-74
2023/06/26 12:04:44;;;;;;;6.28;4.97;;;28.00;99.90;;;;;;4997900;28;20057;-76
2023/06/26 12:07:14;;;;;;;7.15;5.40;;;28.00;99.90;;;;;;4998877;28;20053;-75
2023/06/26 12:09:56;;;;;;;5.93;5.35;;;27.90;99.90;;;;;;4999540;28;20043;-76
2023/06/26 12:12:23;;;;;;;7.18;5.43;;;27.90;99.90;;;;;;5001416;28;20042;-76
2023/06/26 12:14:52;;;;;;;6.82;5.65;;;27.90;99.90;;;;;;4991230;28;20072;-77
2023/06/26 12:17:26;;;;;;;9.10;5.82;;;28.00;99.90;;;;;;5000549;28;20041;-75
2023/06/26 12:19:53;;;;;;;8.75;5.65;;;28.00;99.90;;;;;;4999260;28;20084;-76
2023/06/26 12:22:22;;;;;;;7.47;6.05;;;28.10;99.90;;;;;;5001907;28;20045;-74
2023/06/26 12:24:49;;;;;;;8.20;6.50;;;28.10;99.90;;;;;;4999195;28;20137;-75
2023/06/26 12:27:19;;;;;;;8.50;6.25;;;27.90;99.90;;;;;;4999824;28;20454;-76
2023/06/26 12:29:52;;;;;;;7.78;5.53;;;27.90;99.90;;;;;;5000001;28;20038;-75
2023/06/26 12:32:20;;;;;;;8.85;6.03;;;28.10;99.90;;;;;;5000519;28;20084;-75
2023/06/26 12:34:50;;;;;;;7.75;5.20;;;28.20;99.90;;;;;;4999465;28;20376;-76
2023/06/26 12:37:18;;;;;;;7.70;5.97;;;28.40;99.90;;;;;;4981882;28;20465;-76
2023/06/26 12:39:51;;;;;;;8.63;6.93;;;28.70;99.90;;;;;;5001360;28;20058;-74
2023/06/26 12:42:20;;;;;;;8.68;5.82;;;29.10;99.90;;;;;;5000924;28;20046;-73